createdAt,value
2017-09-10T00:02:20.434Z,3.37
2017-09-10T00:04:48.626Z,4.27
2017-09-10T00:07:16.034Z,4.53
2017-09-10T00:09:43.441Z,4.27
2017-09-10T00:12:10.859Z,4.30
2017-09-10T00:14:38.272Z,4.87
2017-09-10T00:17:05.679Z,5.57
2017-09-10T00:19:33.082Z,5.37
2017-09-10T00:22:01.137Z,9.20
2017-09-10T00:24:28.535Z,6.30
2017-09-10T00:26:55.947Z,5.17
2017-09-10T00:29:23.349Z,5.50
2017-09-10T00:31:50.761Z,5.40
2017-09-10T00:34:18.174Z,5.53
2017-09-10T00:36:45.589Z,4.13
2017-09-10T00:39:12.982Z,3.67
2017-09-10T00:41:40.404Z,3.60
2017-09-10T00:44:07.805Z,3.40
2017-09-10T00:46:36.891Z,4.30
2017-09-10T00:49:04.546Z,3.87
2017-09-10T00:51:31.941Z,3.60
2017-09-10T00:54:00.109Z,6.60
2017-09-10T00:56:32.361Z,7.37
2017-09-10T00:58:59.768Z,6.53
2017-09-10T01:01:27.179Z,5.70
2017-09-10T01:03:55.350Z,8.23
2017-09-10T01:06:23.538Z,6.43
2017-09-10T01:08:52.065Z,7.03
2017-09-10T01:11:19.477Z,6.03
2017-09-10T01:13:47.668Z,8.07
2017-09-10T01:16:15.066Z,5.70
2017-09-10T01:18:42.481Z,6.23
2017-09-10T01:21:09.894Z,4.60
2017-09-10T01:23:37.308Z,3.33
2017-09-10T01:26:04.712Z,3.97
2017-09-10T01:28:32.885Z,3.77
2017-09-10T01:31:01.057Z,3.63
2017-09-10T01:33:29.338Z,4.30
2017-09-10T01:35:57.520Z,3.30
2017-09-10T01:38:25.696Z,6.30
2017-09-10T01:40:53.874Z,6.50
2017-09-10T01:43:22.050Z,5.90
2017-09-10T01:45:50.230Z,5.60
2017-09-10T01:48:17.641Z,4.73
2017-09-10T01:50:45.045Z,5.00
2017-09-10T01:53:12.457Z,4.57
2017-09-10T01:55:39.880Z,4.20
2017-09-10T01:58:07.281Z,4.90
2017-09-10T02:00:35.465Z,6.27
2017-09-10T02:03:03.646Z,7.40
2017-09-10T02:05:31.054Z,4.40
2017-09-10T02:07:58.466Z,4.60
2017-09-10T02:10:26.633Z,5.63
2017-09-10T02:12:54.813Z,4.10
2017-09-10T02:15:22.213Z,5.07
2017-09-10T02:17:49.625Z,4.83
2017-09-10T02:20:17.035Z,9.00
2017-09-10T02:22:44.477Z,4.87
2017-09-10T02:25:11.894Z,4.30
2017-09-10T02:27:39.298Z,5.23
2017-09-10T02:30:06.721Z,4.43
2017-09-10T02:32:34.135Z,6.80
2017-09-10T02:35:01.544Z,4.73
2017-09-10T02:37:28.938Z,5.37
2017-09-10T02:39:56.973Z,4.50
2017-09-10T02:42:24.358Z,4.00
2017-09-10T02:44:51.774Z,3.50
2017-09-10T02:47:19.185Z,5.20
2017-09-10T02:49:48.115Z,4.20
2017-09-10T02:52:15.518Z,4.27
2017-09-10T02:54:42.942Z,4.60
2017-09-10T02:57:11.347Z,2.80
2017-09-10T02:59:38.768Z,4.90
2017-09-10T03:02:06.810Z,4.00
2017-09-10T03:04:34.982Z,5.37
2017-09-10T03:07:03.162Z,3.43
2017-09-10T03:09:31.337Z,4.13
2017-09-10T03:11:59.511Z,3.63
2017-09-10T03:14:27.547Z,2.73
2017-09-10T03:16:55.721Z,4.70
2017-09-10T03:19:23.781Z,4.77
2017-09-10T03:21:51.181Z,4.13
2017-09-10T03:24:19.359Z,3.40
2017-09-10T03:26:47.542Z,6.97
2017-09-10T03:29:14.945Z,3.60
2017-09-10T03:31:42.717Z,4.20
2017-09-10T03:34:10.113Z,4.73
2017-09-10T03:36:37.531Z,4.67
2017-09-10T03:39:04.950Z,4.70
2017-09-10T03:41:32.366Z,4.50
2017-09-10T03:44:00.563Z,4.07
2017-09-10T03:46:27.967Z,6.30
2017-09-10T03:48:55.387Z,3.73
2017-09-10T03:51:22.801Z,4.40
2017-09-10T03:53:50.978Z,5.43
2017-09-10T03:56:19.176Z,5.80
2017-09-10T03:58:46.581Z,4.60
2017-09-10T04:01:13.995Z,4.57
2017-09-10T04:03:41.410Z,4.53
2017-09-10T04:06:10.005Z,5.27
2017-09-10T04:08:38.174Z,4.40
2017-09-10T04:11:06.370Z,4.43
2017-09-10T04:13:33.775Z,4.93
2017-09-10T04:16:01.961Z,4.70
2017-09-10T04:18:29.369Z,5.27
2017-09-10T04:20:56.782Z,5.60
2017-09-10T04:23:24.970Z,5.77
2017-09-10T04:25:53.145Z,5.50
2017-09-10T04:28:21.330Z,6.17
2017-09-10T04:30:48.749Z,7.60
2017-09-10T04:33:16.171Z,6.40
2017-09-10T04:35:43.577Z,5.27
2017-09-10T04:38:11.762Z,6.77
2017-09-10T04:40:39.937Z,7.57
2017-09-10T04:43:08.128Z,7.27
2017-09-10T04:45:35.529Z,7.00
2017-09-10T04:48:03.709Z,5.03
2017-09-10T04:50:31.130Z,5.47
2017-09-10T04:52:58.541Z,5.13
2017-09-10T04:55:26.741Z,7.83
2017-09-10T04:57:54.918Z,5.93
2017-09-10T05:00:22.322Z,6.97
2017-09-10T05:02:49.749Z,6.97
2017-09-10T05:05:17.158Z,7.13
2017-09-10T05:07:44.573Z,5.97
2017-09-10T05:10:11.989Z,8.27
2017-09-10T05:12:40.166Z,6.97
2017-09-10T05:15:07.575Z,5.53
2017-09-10T05:17:35.786Z,7.83
2017-09-10T05:20:03.965Z,7.63
2017-09-10T05:22:32.139Z,8.23
2017-09-10T05:24:59.554Z,9.23
2017-09-10T05:27:26.971Z,8.07
2017-09-10T05:29:55.309Z,9.40
2017-09-10T05:32:23.495Z,9.53
2017-09-10T05:34:52.358Z,9.10
2017-09-10T05:37:19.770Z,8.27
2017-09-10T05:39:47.190Z,9.37
2017-09-10T05:42:15.380Z,7.60
2017-09-10T05:44:43.294Z,10.60
2017-09-10T05:47:11.630Z,7.20
2017-09-10T05:49:39.047Z,7.63
2017-09-10T05:52:06.450Z,6.33
2017-09-10T05:54:33.865Z,6.70
2017-09-10T05:57:01.269Z,7.17
2017-09-10T05:59:28.696Z,6.47
2017-09-10T06:01:56.861Z,7.97
2017-09-10T06:04:24.981Z,7.43
2017-09-10T06:06:52.392Z,5.53
2017-09-10T06:09:20.877Z,6.77
2017-09-10T06:11:49.050Z,5.57
2017-09-10T06:14:18.413Z,6.10
2017-09-10T06:16:45.826Z,7.33
2017-09-10T06:19:13.249Z,4.87
2017-09-10T06:21:41.420Z,3.53
2017-09-10T06:24:08.842Z,5.43
2017-09-10T06:26:36.261Z,4.87
2017-09-10T06:29:03.677Z,4.60
2017-09-10T06:31:31.106Z,5.90
2017-09-10T06:33:58.517Z,3.73
2017-09-10T06:36:26.697Z,4.43
2017-09-10T06:38:54.906Z,4.30
2017-09-10T06:41:22.301Z,4.60
2017-09-10T06:43:49.717Z,3.93
2017-09-10T06:46:17.134Z,5.27
2017-09-10T06:48:45.314Z,3.60
2017-09-10T06:51:12.728Z,3.70
2017-09-10T06:53:40.139Z,4.50
2017-09-10T06:56:07.550Z,4.47
2017-09-10T06:58:34.957Z,3.40
2017-09-10T07:01:02.374Z,3.03
2017-09-10T07:03:29.785Z,3.10
2017-09-10T07:05:57.202Z,3.37
2017-09-10T07:08:25.379Z,2.53
2017-09-10T07:10:52.802Z,3.47
2017-09-10T07:13:20.946Z,3.87
2017-09-10T07:15:48.370Z,3.20
2017-09-10T07:18:15.773Z,2.23
2017-09-10T07:20:43.193Z,2.97
2017-09-10T07:23:10.608Z,2.23
2017-09-10T07:25:38.005Z,2.07
2017-09-10T07:28:05.549Z,2.87
2017-09-10T07:30:32.957Z,2.10
2017-09-10T07:33:01.165Z,4.00
2017-09-10T07:35:28.937Z,3.03
2017-09-10T07:37:56.553Z,2.07
2017-09-10T07:40:24.759Z,3.20
2017-09-10T07:42:52.187Z,2.13
2017-09-10T07:45:20.771Z,3.80
2017-09-10T07:47:48.192Z,2.63
2017-09-10T07:50:15.593Z,2.20
2017-09-10T07:52:43.009Z,2.73
2017-09-10T07:55:11.542Z,2.60
2017-09-10T07:57:39.494Z,2.47
2017-09-10T08:00:06.907Z,2.80
2017-09-10T08:02:34.329Z,2.70
2017-09-10T08:05:02.522Z,3.10
2017-09-10T08:07:29.934Z,2.17
2017-09-10T08:09:57.341Z,2.00
2017-09-10T08:12:24.758Z,1.97
2017-09-10T08:14:52.175Z,4.70
2017-09-10T08:17:19.590Z,2.97
2017-09-10T08:19:47.770Z,2.23
2017-09-10T08:22:16.853Z,1.60
2017-09-10T08:24:45.082Z,1.67
2017-09-10T08:27:12.507Z,1.93
2017-09-10T08:29:39.913Z,2.03
2017-09-10T08:32:07.338Z,1.50
2017-09-10T08:34:34.749Z,1.47
2017-09-10T08:37:02.159Z,1.40
2017-09-10T08:39:29.638Z,1.57
2017-09-10T08:41:57.050Z,1.60
2017-09-10T08:44:24.492Z,1.60
2017-09-10T08:46:52.429Z,3.07
2017-09-10T08:49:20.846Z,2.10
2017-09-10T08:51:48.263Z,1.20
2017-09-10T08:54:16.450Z,1.40
2017-09-10T08:56:44.503Z,2.03
2017-09-10T08:59:11.934Z,1.70
2017-09-10T09:01:40.520Z,1.40
2017-09-10T09:04:07.932Z,2.10
2017-09-10T09:06:35.358Z,1.50
2017-09-10T09:09:02.771Z,1.57
2017-09-10T09:11:30.182Z,1.87
2017-09-10T09:13:57.598Z,1.70
2017-09-10T09:16:25.011Z,1.90
2017-09-10T09:18:53.189Z,2.57
2017-09-10T09:21:21.369Z,2.87
2017-09-10T09:23:49.306Z,2.30
2017-09-10T09:26:16.705Z,2.53
2017-09-10T09:28:44.127Z,3.33
2017-09-10T09:31:12.486Z,2.90
2017-09-10T09:33:39.886Z,4.03
2017-09-10T09:36:07.544Z,3.10
2017-09-10T09:38:35.344Z,1.97
2017-09-10T09:41:02.762Z,1.83
2017-09-10T09:43:30.184Z,1.60
2017-09-10T09:45:57.597Z,1.40
2017-09-10T09:48:25.651Z,2.73
2017-09-10T09:50:54.751Z,1.13
2017-09-10T09:53:22.165Z,1.30
2017-09-10T09:55:50.438Z,3.80
2017-09-10T09:58:17.858Z,1.63
2017-09-10T10:00:45.382Z,1.67
2017-09-10T10:03:13.545Z,1.50
2017-09-10T10:05:41.729Z,1.30
2017-09-10T10:08:09.658Z,1.10
2017-09-10T10:10:37.095Z,1.60
2017-09-10T10:13:04.502Z,2.77
2017-09-10T10:15:32.803Z,2.17
2017-09-10T10:18:00.212Z,1.63
2017-09-10T10:20:27.638Z,2.03
2017-09-10T10:25:16.258Z,1.97
2017-09-10T10:27:44.514Z,1.60
2017-09-10T10:30:12.943Z,1.77
2017-09-10T10:32:40.363Z,2.00
2017-09-10T10:35:07.774Z,1.50
2017-09-10T10:37:35.207Z,1.40
2017-09-10T10:40:02.613Z,2.17
2017-09-10T10:42:30.050Z,1.80
2017-09-10T10:44:57.466Z,1.90
2017-09-10T10:47:25.654Z,1.70
2017-09-10T10:49:53.072Z,2.37
2017-09-10T10:52:21.254Z,1.80
2017-09-10T10:54:48.660Z,1.50
2017-09-10T10:57:16.865Z,3.20
2017-09-10T10:59:44.301Z,1.23
2017-09-10T11:02:11.717Z,1.50
2017-09-10T11:04:39.171Z,1.00
2017-09-10T11:07:07.659Z,1.20
2017-09-10T11:09:35.082Z,2.50
2017-09-10T11:12:02.498Z,1.33
2017-09-10T11:14:29.907Z,2.03
2017-09-10T11:16:58.646Z,1.53
2017-09-10T11:19:26.066Z,1.50
2017-09-10T11:21:53.479Z,1.20
2017-09-10T11:24:21.045Z,2.07
2017-09-10T11:26:49.230Z,2.13
2017-09-10T11:29:16.675Z,1.23
2017-09-10T11:31:44.069Z,1.63
2017-09-10T11:34:11.497Z,1.30
2017-09-10T11:36:39.735Z,1.50
2017-09-10T11:39:07.146Z,3.77
2017-09-10T11:41:35.338Z,1.00
2017-09-10T11:44:03.459Z,2.10
2017-09-10T11:46:30.879Z,1.10
2017-09-10T11:48:58.289Z,1.30
2017-09-10T11:51:26.519Z,1.13
2017-09-10T11:53:53.913Z,2.20
2017-09-10T11:56:21.328Z,1.20
2017-09-10T11:58:48.747Z,1.40
2017-09-10T12:01:16.162Z,1.70
2017-09-10T12:03:44.400Z,2.40
2017-09-10T12:06:11.821Z,1.40
2017-09-10T12:08:40.542Z,1.77
2017-09-10T12:11:07.964Z,1.27
2017-09-10T12:13:36.143Z,1.73
2017-09-10T12:16:04.351Z,0.80
2017-09-10T12:18:31.770Z,1.00
2017-09-10T12:20:59.969Z,0.90
2017-09-10T12:23:28.137Z,1.03
2017-09-10T12:25:55.562Z,2.07
2017-09-10T12:28:22.962Z,1.10
2017-09-10T12:30:50.390Z,1.53
2017-09-10T12:33:18.570Z,1.20
2017-09-10T12:35:47.699Z,1.03
2017-09-10T12:38:15.110Z,1.10
2017-09-10T12:40:43.297Z,2.23
2017-09-10T12:43:11.482Z,1.13
2017-09-10T12:45:39.542Z,1.13
2017-09-10T12:48:07.716Z,1.43
2017-09-10T12:50:35.905Z,2.07
2017-09-10T12:53:03.318Z,1.63
2017-09-10T12:55:30.742Z,1.47
2017-09-10T12:57:58.161Z,1.10
2017-09-10T13:00:26.986Z,1.43
2017-09-10T13:02:54.409Z,1.30
2017-09-10T13:05:21.829Z,0.83
2017-09-10T13:07:49.251Z,1.10
2017-09-10T13:10:16.666Z,1.10
2017-09-10T13:12:44.840Z,1.17
2017-09-10T13:15:13.029Z,1.43
2017-09-10T13:17:40.438Z,1.00
2017-09-10T13:20:07.854Z,0.70
2017-09-10T13:22:35.266Z,0.83
2017-09-10T13:25:02.704Z,1.43
2017-09-10T13:27:30.110Z,1.30
2017-09-10T13:29:58.290Z,0.97
2017-09-10T13:32:25.701Z,1.07
2017-09-10T13:34:53.131Z,1.23
2017-09-10T13:37:24.094Z,1.13
2017-09-10T13:39:51.513Z,1.07
2017-09-10T13:42:19.858Z,1.90
2017-09-10T13:44:47.271Z,1.37
2017-09-10T13:47:14.691Z,1.20
2017-09-10T13:49:42.094Z,1.03
2017-09-10T13:52:09.519Z,1.37
2017-09-10T13:54:36.926Z,1.00
2017-09-10T13:57:05.106Z,4.60
2017-09-10T13:59:33.301Z,1.57
2017-09-10T14:02:00.719Z,6.10
2017-09-10T14:04:28.134Z,2.30
2017-09-10T14:06:55.558Z,2.20
2017-09-10T14:09:22.971Z,1.53
2017-09-10T14:11:50.391Z,3.33
2017-09-10T14:14:17.804Z,2.50
2017-09-10T14:16:45.226Z,2.50
2017-09-10T14:19:12.640Z,2.37
2017-09-10T14:21:40.055Z,3.20
2017-09-10T14:24:07.461Z,2.60
2017-09-10T14:26:34.877Z,2.67
2017-09-10T14:29:02.286Z,2.27
2017-09-10T14:31:29.707Z,3.10
2017-09-10T14:33:57.895Z,2.93
2017-09-10T14:36:26.139Z,4.13
2017-09-10T14:38:53.556Z,4.03
2017-09-10T14:41:20.964Z,4.17
2017-09-10T14:43:48.377Z,2.30
2017-09-10T14:46:15.793Z,4.30
2017-09-10T14:48:43.978Z,2.80
2017-09-10T14:51:11.382Z,2.63
2017-09-10T14:53:38.807Z,4.67
2017-09-10T14:56:06.217Z,2.60
2017-09-10T14:58:33.640Z,3.10
2017-09-10T15:01:01.045Z,3.13
2017-09-10T15:03:28.458Z,3.93
2017-09-10T15:05:55.876Z,2.70
2017-09-10T15:08:23.291Z,4.23
2017-09-10T15:10:50.702Z,3.40
2017-09-10T15:13:18.117Z,3.10
2017-09-10T15:15:46.303Z,2.97
2017-09-10T15:18:13.735Z,1.90
2017-09-10T15:20:41.185Z,2.30
2017-09-10T15:23:08.638Z,2.23
2017-09-10T15:25:36.467Z,1.93
2017-09-10T15:28:03.886Z,1.97
2017-09-10T15:30:31.307Z,3.30
2017-09-10T15:33:00.060Z,2.40
2017-09-10T15:35:27.474Z,3.00
2017-09-10T15:37:55.649Z,2.23
2017-09-10T15:40:23.871Z,2.40
2017-09-10T15:42:51.279Z,2.37
2017-09-10T15:45:19.889Z,3.90
2017-09-10T15:47:47.354Z,4.17
2017-09-10T15:50:14.778Z,5.70
2017-09-10T15:52:42.212Z,4.50
2017-09-10T15:55:09.626Z,3.90
2017-09-10T15:57:37.027Z,2.20
2017-09-10T16:00:04.447Z,3.77
2017-09-10T16:02:31.856Z,2.47
2017-09-10T16:05:00.051Z,2.70
2017-09-10T16:07:28.905Z,4.13
2017-09-10T16:09:56.312Z,2.20
2017-09-10T16:12:23.730Z,2.70
2017-09-10T16:14:51.922Z,4.60
2017-09-10T16:17:19.333Z,4.20
2017-09-10T16:19:46.767Z,3.53
2017-09-10T16:22:14.186Z,7.40
2017-09-10T16:24:42.366Z,5.30
2017-09-10T16:27:09.773Z,5.20
2017-09-10T16:29:37.234Z,6.03
2017-09-10T16:32:04.659Z,7.70
2017-09-10T16:34:32.093Z,7.70
2017-09-10T16:37:00.257Z,8.20
2017-09-10T16:39:27.669Z,6.70
2017-09-10T16:41:55.092Z,6.60
2017-09-10T16:44:22.545Z,5.23
2017-09-10T16:46:49.962Z,5.60
2017-09-10T16:49:17.371Z,7.07
2017-09-10T16:51:44.782Z,5.57
2017-09-10T16:54:14.134Z,5.77
2017-09-10T16:56:42.555Z,8.10
2017-09-10T16:59:11.167Z,5.70
2017-09-10T17:01:38.582Z,5.47
2017-09-10T17:04:06.004Z,6.10
2017-09-10T17:06:33.433Z,7.07
2017-09-10T17:09:01.190Z,7.03
2017-09-10T17:11:28.585Z,4.93
2017-09-10T17:13:56.002Z,7.23
2017-09-10T17:16:24.184Z,6.87
2017-09-10T17:18:52.368Z,9.50
2017-09-10T17:21:19.775Z,10.60
2017-09-10T17:23:47.195Z,9.57
2017-09-10T17:26:14.622Z,17.07
2017-09-10T17:28:42.043Z,15.43
2017-09-10T17:31:09.464Z,13.60
2017-09-10T17:33:36.882Z,16.80
2017-09-10T17:36:04.383Z,10.80
2017-09-10T17:38:31.785Z,8.20
2017-09-10T17:40:59.209Z,9.93
2017-09-10T17:43:26.631Z,5.20
2017-09-10T17:45:54.810Z,6.60
2017-09-10T17:48:22.235Z,7.77
2017-09-10T17:50:50.408Z,5.73
2017-09-10T17:53:17.837Z,6.40
2017-09-10T17:55:45.245Z,5.47
2017-09-10T17:58:12.669Z,4.73
2017-09-10T18:00:40.083Z,7.03
2017-09-10T18:03:08.173Z,4.30
2017-09-10T18:05:36.810Z,7.67
2017-09-10T18:08:04.225Z,8.50
2017-09-10T18:10:31.652Z,5.90
2017-09-10T18:12:59.075Z,4.87
2017-09-10T18:15:26.483Z,4.50
2017-09-10T18:17:53.917Z,4.53
2017-09-10T18:20:21.322Z,5.70
2017-09-10T18:22:49.507Z,4.63
2017-09-10T18:25:17.693Z,6.27
2017-09-10T18:27:45.106Z,6.40
2017-09-10T18:30:12.519Z,8.30
2017-09-10T18:32:40.370Z,4.20
2017-09-10T18:35:07.795Z,4.70
2017-09-10T18:37:35.210Z,4.60
2017-09-10T18:40:02.629Z,5.27
2017-09-10T18:42:30.822Z,5.67
2017-09-10T18:45:01.066Z,4.57
2017-09-10T18:47:28.480Z,3.67
2017-09-10T18:49:56.664Z,3.33
2017-09-10T18:52:24.071Z,5.53
2017-09-10T18:54:52.273Z,3.30
2017-09-10T18:57:20.457Z,2.83
2017-09-10T18:59:49.294Z,3.40
2017-09-10T19:02:16.715Z,3.60
2017-09-10T19:04:44.133Z,2.87
2017-09-10T19:07:12.061Z,3.80
2017-09-10T19:09:39.487Z,4.47
2017-09-10T19:12:07.660Z,2.93
2017-09-10T19:14:35.845Z,3.77
2017-09-10T19:17:03.258Z,2.97
2017-09-10T19:19:30.676Z,3.40
2017-09-10T19:21:58.092Z,2.77
2017-09-10T19:24:26.275Z,3.77
2017-09-10T19:26:54.453Z,4.23
2017-09-10T19:29:21.875Z,4.63
2017-09-10T19:31:49.298Z,4.40
2017-09-10T19:34:17.369Z,5.93
2017-09-10T19:36:44.775Z,4.90
2017-09-10T19:39:13.380Z,4.70
2017-09-10T19:41:41.554Z,2.60
2017-09-10T19:44:10.850Z,4.33
2017-09-10T19:46:39.042Z,3.43
2017-09-10T19:49:06.494Z,4.53
2017-09-10T19:51:33.876Z,2.30
2017-09-10T19:54:01.286Z,8.17
2017-09-10T19:56:29.477Z,2.60
2017-09-10T19:58:56.886Z,2.60
2017-09-10T20:01:24.300Z,3.60
2017-09-10T20:03:51.711Z,2.23
2017-09-10T20:06:19.640Z,4.17
2017-09-10T20:08:47.048Z,2.50
2017-09-10T20:11:15.245Z,4.57
2017-09-10T20:13:42.643Z,2.30
2017-09-10T20:16:10.071Z,3.77
2017-09-10T20:18:37.473Z,5.80
2017-09-10T20:21:04.900Z,4.93
2017-09-10T20:23:32.314Z,2.80
2017-09-10T20:26:00.503Z,2.50
2017-09-10T20:28:27.906Z,2.30
2017-09-10T20:30:55.330Z,3.90
2017-09-10T20:33:22.735Z,2.70
2017-09-10T20:35:50.922Z,3.03
2017-09-10T20:38:18.333Z,2.30
2017-09-10T20:40:45.778Z,2.10
2017-09-10T20:43:13.185Z,2.60
2017-09-10T20:45:41.378Z,2.27
2017-09-10T20:48:08.794Z,2.00
2017-09-10T20:50:36.761Z,1.67
2017-09-10T20:53:04.183Z,2.17
2017-09-10T20:55:31.589Z,2.07
2017-09-10T20:57:59.777Z,2.17
2017-09-10T21:00:27.989Z,2.43
2017-09-10T21:02:55.404Z,6.90
2017-09-10T21:05:22.818Z,2.30
2017-09-10T21:07:50.596Z,1.63
2017-09-10T21:10:17.986Z,2.43
2017-09-10T21:12:46.169Z,4.67
2017-09-10T21:15:13.586Z,4.97
2017-09-10T21:17:41.005Z,3.17
2017-09-10T21:20:09.230Z,3.57
2017-09-10T21:22:37.033Z,2.20
2017-09-10T21:25:04.447Z,2.80
2017-09-10T21:27:32.633Z,2.50
2017-09-10T21:30:00.807Z,2.97
2017-09-10T21:32:28.222Z,2.23
2017-09-10T21:34:55.643Z,3.60
2017-09-10T21:37:23.058Z,3.60
2017-09-10T21:39:51.243Z,2.30
2017-09-10T21:42:18.654Z,1.77
2017-09-10T21:44:46.069Z,2.83
2017-09-10T21:47:14.278Z,4.00
2017-09-10T21:49:41.861Z,4.33
2017-09-10T21:52:09.275Z,2.30
2017-09-10T21:54:36.698Z,2.43
2017-09-10T21:57:04.870Z,3.93
2017-09-10T21:59:32.287Z,1.70
2017-09-10T22:01:59.690Z,1.80
2017-09-10T22:04:27.875Z,2.93
2017-09-10T22:06:56.329Z,3.00
2017-09-10T22:09:23.725Z,1.70
2017-09-10T22:11:51.129Z,3.87
2017-09-10T22:14:19.396Z,1.93
2017-09-10T22:17:00.018Z,3.20
2017-09-10T22:19:27.447Z,1.60
2017-09-10T22:21:54.857Z,1.67
2017-09-10T22:24:22.288Z,1.43
2017-09-10T22:26:50.456Z,2.20
2017-09-10T22:29:17.869Z,1.00
2017-09-10T22:31:45.291Z,1.10
2017-09-10T22:34:12.711Z,1.70
2017-09-10T22:36:40.125Z,2.30
2017-09-10T22:39:07.550Z,2.23
2017-09-10T22:41:34.967Z,1.60
2017-09-10T22:44:03.155Z,1.87
2017-09-10T22:46:31.954Z,2.80
2017-09-10T22:49:00.964Z,1.90
2017-09-10T22:51:28.362Z,2.37
2017-09-10T22:53:55.787Z,1.37
2017-09-10T22:56:23.194Z,1.27
2017-09-10T22:58:51.390Z,1.90
2017-09-10T23:01:18.806Z,1.13
2017-09-10T23:03:46.230Z,1.70
2017-09-10T23:06:13.646Z,3.03
2017-09-10T23:08:41.821Z,1.00
2017-09-10T23:11:10.048Z,1.10
2017-09-10T23:13:37.434Z,1.83
2017-09-10T23:16:04.850Z,2.57
2017-09-10T23:18:32.270Z,5.00
2017-09-10T23:20:59.685Z,1.47
2017-09-10T23:23:27.100Z,2.70
2017-09-10T23:25:55.231Z,1.67
2017-09-10T23:28:23.410Z,2.00
2017-09-10T23:30:51.794Z,1.47
2017-09-10T23:33:19.967Z,1.23
2017-09-10T23:35:48.152Z,2.00
2017-09-10T23:38:16.322Z,1.10
2017-09-10T23:40:45.206Z,1.13
2017-09-10T23:43:12.619Z,1.93
2017-09-10T23:45:40.040Z,1.57
2017-09-10T23:48:07.451Z,1.67
2017-09-10T23:50:36.034Z,1.47
2017-09-10T23:53:03.458Z,1.20
2017-09-10T23:55:30.871Z,3.07
2017-09-10T23:57:59.051Z,1.20
